sensor_id;sensor_type;location;lat;lon;timestamp;P1;durP1;ratioP1;P2;durP2;ratioP2
15665;SDS011;20725;51.196;3.510;2024-01-06T00:00:49;3.57;;;2.20;;
15665;SDS011;20725;51.196;3.510;2024-01-06T00:03:16;9.80;;;2.30;;
15665;SDS011;20725;51.196;3.510;2024-01-06T00:05:43;6.03;;;3.03;;
15665;SDS011;20725;51.196;3.510;2024-01-06T00:08:11;7.13;;;2.37;;
15665;SDS011;20725;51.196;3.510;2024-01-06T00:10:38;8.10;;;2.33;;
15665;SDS011;20725;51.196;3.510;2024-01-06T00:13:05;11.07;;;2.67;;
15665;SDS011;20725;51.196;3.510;2024-01-06T00:15:34;7.23;;;2.60;;
15665;SDS011;20725;51.196;3.510;2024-01-06T00:18:02;15.43;;;2.67;;
15665;SDS011;20725;51.196;3.510;2024-01-06T00:20:30;6.37;;;2.67;;
15665;SDS011;20725;51.196;3.510;2024-01-06T00:22:57;8.50;;;2.50;;
15665;SDS011;20725;51.196;3.510;2024-01-06T00:25:24;10.77;;;2.53;;
15665;SDS011;20725;51.196;3.510;2024-01-06T00:27:52;7.67;;;2.10;;
15665;SDS011;20725;51.196;3.510;2024-01-06T00:30:19;12.47;;;2.37;;
15665;SDS011;20725;51.196;3.510;2024-01-06T00:32:48;7.07;;;2.53;;
15665;SDS011;20725;51.196;3.510;2024-01-06T00:35:15;12.70;;;2.67;;
15665;SDS011;20725;51.196;3.510;2024-01-06T00:37:43;10.10;;;2.43;;
15665;SDS011;20725;51.196;3.510;2024-01-06T00:40:10;12.80;;;3.17;;
15665;SDS011;20725;51.196;3.510;2024-01-06T00:42:38;7.87;;;2.27;;
15665;SDS011;20725;51.196;3.510;2024-01-06T00:45:05;10.27;;;2.30;;
15665;SDS011;20725;51.196;3.510;2024-01-06T00:47:33;11.17;;;2.60;;
15665;SDS011;20725;51.196;3.510;2024-01-06T00:50:02;13.80;;;2.57;;
15665;SDS011;20725;51.196;3.510;2024-01-06T00:52:29;11.93;;;2.57;;
15665;SDS011;20725;51.196;3.510;2024-01-06T00:54:56;11.90;;;2.13;;
15665;SDS011;20725;51.196;3.510;2024-01-06T00:57:24;11.17;;;2.20;;
15665;SDS011;20725;51.196;3.510;2024-01-06T00:59:51;7.83;;;2.20;;
15665;SDS011;20725;51.196;3.510;2024-01-06T01:02:18;5.83;;;2.20;;
15665;SDS011;20725;51.196;3.510;2024-01-06T01:04:46;5.40;;;1.90;;
15665;SDS011;20725;51.196;3.510;2024-01-06T01:07:14;9.43;;;2.43;;
15665;SDS011;20725;51.196;3.510;2024-01-06T01:09:42;10.50;;;2.70;;
15665;SDS011;20725;51.196;3.510;2024-01-06T01:12:09;11.60;;;2.70;;
15665;SDS011;20725;51.196;3.510;2024-01-06T01:14:36;5.87;;;2.37;;
15665;SDS011;20725;51.196;3.510;2024-01-06T01:17:04;10.83;;;2.40;;
15665;SDS011;20725;51.196;3.510;2024-01-06T01:19:31;7.83;;;2.67;;
15665;SDS011;20725;51.196;3.510;2024-01-06T01:21:59;8.57;;;2.30;;
15665;SDS011;20725;51.196;3.510;2024-01-06T01:24:27;9.63;;;2.50;;
15665;SDS011;20725;51.196;3.510;2024-01-06T01:26:55;10.77;;;2.30;;
15665;SDS011;20725;51.196;3.510;2024-01-06T01:29:22;6.47;;;2.40;;
15665;SDS011;20725;51.196;3.510;2024-01-06T01:31:49;5.80;;;1.83;;
15665;SDS011;20725;51.196;3.510;2024-01-06T01:34:17;5.60;;;1.80;;
15665;SDS011;20725;51.196;3.510;2024-01-06T01:36:44;6.87;;;1.97;;
15665;SDS011;20725;51.196;3.510;2024-01-06T01:39:11;5.53;;;2.43;;
15665;SDS011;20725;51.196;3.510;2024-01-06T01:41:40;5.13;;;2.10;;
15665;SDS011;20725;51.196;3.510;2024-01-06T01:44:08;4.80;;;1.80;;
15665;SDS011;20725;51.196;3.510;2024-01-06T01:46:35;7.37;;;1.70;;
15665;SDS011;20725;51.196;3.510;2024-01-06T01:49:03;2.23;;;1.80;;
15665;SDS011;20725;51.196;3.510;2024-01-06T01:51:32;2.50;;;1.80;;
15665;SDS011;20725;51.196;3.510;2024-01-06T01:54:00;6.00;;;2.60;;
15665;SDS011;20725;51.196;3.510;2024-01-06T01:56:28;2.83;;;1.60;;
15665;SDS011;20725;51.196;3.510;2024-01-06T01:59:00;5.07;;;1.83;;
15665;SDS011;20725;51.196;3.510;2024-01-06T02:01:28;9.97;;;2.20;;
15665;SDS011;20725;51.196;3.510;2024-01-06T02:03:56;6.63;;;2.30;;
15665;SDS011;20725;51.196;3.510;2024-01-06T02:06:23;6.83;;;1.70;;
15665;SDS011;20725;51.196;3.510;2024-01-06T02:08:50;10.27;;;1.83;;
15665;SDS011;20725;51.196;3.510;2024-01-06T02:11:18;13.83;;;2.13;;
15665;SDS011;20725;51.196;3.510;2024-01-06T02:13:45;6.87;;;1.90;;
15665;SDS011;20725;51.196;3.510;2024-01-06T02:16:14;5.17;;;1.80;;
15665;SDS011;20725;51.196;3.510;2024-01-06T02:18:41;12.90;;;2.50;;
15665;SDS011;20725;51.196;3.510;2024-01-06T02:21:09;7.00;;;2.10;;
15665;SDS011;20725;51.196;3.510;2024-01-06T02:23:38;8.00;;;2.23;;
15665;SDS011;20725;51.196;3.510;2024-01-06T02:26:05;9.70;;;2.37;;
15665;SDS011;20725;51.196;3.510;2024-01-06T02:28:32;9.60;;;2.60;;
15665;SDS011;20725;51.196;3.510;2024-01-06T02:31:00;8.50;;;2.00;;
15665;SDS011;20725;51.196;3.510;2024-01-06T02:33:27;6.63;;;2.47;;
15665;SDS011;20725;51.196;3.510;2024-01-06T02:35:54;8.17;;;2.00;;
15665;SDS011;20725;51.196;3.510;2024-01-06T02:38:22;6.50;;;2.03;;
15665;SDS011;20725;51.196;3.510;2024-01-06T02:40:50;6.03;;;2.10;;
15665;SDS011;20725;51.196;3.510;2024-01-06T02:43:18;4.00;;;1.90;;
15665;SDS011;20725;51.196;3.510;2024-01-06T02:45:45;6.10;;;2.03;;
15665;SDS011;20725;51.196;3.510;2024-01-06T02:48:13;5.37;;;2.20;;
15665;SDS011;20725;51.196;3.510;2024-01-06T02:50:40;8.57;;;2.87;;
15665;SDS011;20725;51.196;3.510;2024-01-06T02:53:07;9.93;;;2.80;;
15665;SDS011;20725;51.196;3.510;2024-01-06T02:55:35;10.00;;;2.43;;
15665;SDS011;20725;51.196;3.510;2024-01-06T02:58:03;9.37;;;2.83;;
15665;SDS011;20725;51.196;3.510;2024-01-06T03:00:31;8.33;;;2.33;;
15665;SDS011;20725;51.196;3.510;2024-01-06T03:02:58;9.30;;;2.77;;
15665;SDS011;20725;51.196;3.510;2024-01-06T03:05:25;13.03;;;2.60;;
15665;SDS011;20725;51.196;3.510;2024-01-06T03:07:53;14.50;;;2.60;;
15665;SDS011;20725;51.196;3.510;2024-01-06T03:10:20;7.33;;;2.20;;
15665;SDS011;20725;51.196;3.510;2024-01-06T03:12:47;11.60;;;2.50;;
15665;SDS011;20725;51.196;3.510;2024-01-06T03:15:16;3.67;;;2.17;;
15665;SDS011;20725;51.196;3.510;2024-01-06T03:17:43;7.50;;;2.17;;
15665;SDS011;20725;51.196;3.510;2024-01-06T03:20:11;6.27;;;1.70;;
15665;SDS011;20725;51.196;3.510;2024-01-06T03:22:38;6.33;;;2.13;;
15665;SDS011;20725;51.196;3.510;2024-01-06T03:25:06;3.53;;;1.70;;
15665;SDS011;20725;51.196;3.510;2024-01-06T03:27:33;6.17;;;1.90;;
15665;SDS011;20725;51.196;3.510;2024-01-06T03:30:00;3.60;;;1.70;;
15665;SDS011;20725;51.196;3.510;2024-01-06T03:32:29;2.53;;;1.70;;
15665;SDS011;20725;51.196;3.510;2024-01-06T03:34:57;2.20;;;1.67;;
15665;SDS011;20725;51.196;3.510;2024-01-06T03:37:24;3.47;;;1.70;;
15665;SDS011;20725;51.196;3.510;2024-01-06T03:39:51;2.80;;;1.90;;
15665;SDS011;20725;51.196;3.510;2024-01-06T03:42:19;5.37;;;2.00;;
15665;SDS011;20725;51.196;3.510;2024-01-06T03:44:46;5.03;;;2.43;;
15665;SDS011;20725;51.196;3.510;2024-01-06T03:47:13;6.17;;;1.90;;
15665;SDS011;20725;51.196;3.510;2024-01-06T03:49:42;10.90;;;2.00;;
15665;SDS011;20725;51.196;3.510;2024-01-06T03:52:09;5.37;;;1.97;;
15665;SDS011;20725;51.196;3.510;2024-01-06T03:54:37;5.07;;;2.03;;
15665;SDS011;20725;51.196;3.510;2024-01-06T03:57:04;9.93;;;2.23;;
15665;SDS011;20725;51.196;3.510;2024-01-06T03:59:31;7.53;;;1.87;;
15665;SDS011;20725;51.196;3.510;2024-01-06T04:01:59;7.20;;;2.23;;
15665;SDS011;20725;51.196;3.510;2024-01-06T04:04:26;5.37;;;1.83;;
15665;SDS011;20725;51.196;3.510;2024-01-06T04:06:55;4.43;;;1.80;;
15665;SDS011;20725;51.196;3.510;2024-01-06T04:09:23;2.57;;;1.97;;
15665;SDS011;20725;51.196;3.510;2024-01-06T04:11:50;5.27;;;1.63;;
15665;SDS011;20725;51.196;3.510;2024-01-06T04:14:17;4.33;;;2.00;;
15665;SDS011;20725;51.196;3.510;2024-01-06T04:16:45;4.47;;;2.20;;
15665;SDS011;20725;51.196;3.510;2024-01-06T04:19:12;3.87;;;2.30;;
15665;SDS011;20725;51.196;3.510;2024-01-06T04:21:40;5.67;;;2.07;;
15665;SDS011;20725;51.196;3.510;2024-01-06T04:24:09;4.67;;;2.10;;
15665;SDS011;20725;51.196;3.510;2024-01-06T04:26:36;3.33;;;1.90;;
15665;SDS011;20725;51.196;3.510;2024-01-06T04:29:03;7.27;;;2.40;;
15665;SDS011;20725;51.196;3.510;2024-01-06T04:31:31;4.17;;;1.90;;
15665;SDS011;20725;51.196;3.510;2024-01-06T04:33:58;2.47;;;1.73;;
15665;SDS011;20725;51.196;3.510;2024-01-06T04:36:25;5.23;;;2.00;;
15665;SDS011;20725;51.196;3.510;2024-01-06T04:38:52;3.60;;;1.90;;
15665;SDS011;20725;51.196;3.510;2024-01-06T04:41:21;7.17;;;1.90;;
15665;SDS011;20725;51.196;3.510;2024-01-06T04:43:49;4.00;;;2.30;;
15665;SDS011;20725;51.196;3.510;2024-01-06T04:46:16;4.93;;;1.73;;
15665;SDS011;20725;51.196;3.510;2024-01-06T04:48:43;1.50;;;1.40;;
15665;SDS011;20725;51.196;3.510;2024-01-06T04:51:11;4.30;;;1.60;;
15665;SDS011;20725;51.196;3.510;2024-01-06T04:53:39;4.23;;;1.70;;
15665;SDS011;20725;51.196;3.510;2024-01-06T04:56:06;3.43;;;1.53;;
15665;SDS011;20725;51.196;3.510;2024-01-06T04:58:35;2.50;;;1.90;;
15665;SDS011;20725;51.196;3.510;2024-01-06T05:01:02;3.30;;;1.67;;
15665;SDS011;20725;51.196;3.510;2024-01-06T05:03:30;3.60;;;2.30;;
15665;SDS011;20725;51.196;3.510;2024-01-06T05:05:57;3.50;;;2.37;;
15665;SDS011;20725;51.196;3.510;2024-01-06T05:08:24;5.77;;;2.70;;
15665;SDS011;20725;51.196;3.510;2024-01-06T05:10:52;5.00;;;2.50;;
15665;SDS011;20725;51.196;3.510;2024-01-06T05:13:20;4.43;;;2.50;;
15665;SDS011;20725;51.196;3.510;2024-01-06T05:15:48;3.90;;;3.00;;
15665;SDS011;20725;51.196;3.510;2024-01-06T05:18:16;7.20;;;3.07;;
15665;SDS011;20725;51.196;3.510;2024-01-06T05:20:43;7.67;;;3.50;;
15665;SDS011;20725;51.196;3.510;2024-01-06T05:23:11;6.17;;;3.30;;
15665;SDS011;20725;51.196;3.510;2024-01-06T05:25:38;4.40;;;3.40;;
15665;SDS011;20725;51.196;3.510;2024-01-06T05:28:05;5.97;;;3.67;;
15665;SDS011;20725;51.196;3.510;2024-01-06T05:30:33;7.43;;;4.07;;
15665;SDS011;20725;51.196;3.510;2024-01-06T05:33:02;8.13;;;4.40;;
15665;SDS011;20725;51.196;3.510;2024-01-06T05:35:29;15.60;;;5.27;;
15665;SDS011;20725;51.196;3.510;2024-01-06T05:37:57;8.40;;;4.90;;
15665;SDS011;20725;51.196;3.510;2024-01-06T05:40:24;9.90;;;5.20;;
15665;SDS011;20725;51.196;3.510;2024-01-06T05:42:51;10.50;;;5.00;;
15665;SDS011;20725;51.196;3.510;2024-01-06T05:45:20;7.00;;;4.83;;
15665;SDS011;20725;51.196;3.510;2024-01-06T05:47:48;8.93;;;5.10;;
15665;SDS011;20725;51.196;3.510;2024-01-06T05:50:17;6.93;;;4.70;;
15665;SDS011;20725;51.196;3.510;2024-01-06T05:52:44;5.50;;;4.53;;
15665;SDS011;20725;51.196;3.510;2024-01-06T05:55:13;8.63;;;4.97;;
15665;SDS011;20725;51.196;3.510;2024-01-06T05:57:40;6.83;;;5.17;;
15665;SDS011;20725;51.196;3.510;2024-01-06T06:00:08;7.10;;;4.70;;
15665;SDS011;20725;51.196;3.510;2024-01-06T06:02:37;6.47;;;3.97;;
15665;SDS011;20725;51.196;3.510;2024-01-06T06:05:04;7.43;;;4.27;;
15665;SDS011;20725;51.196;3.510;2024-01-06T06:07:33;5.37;;;4.30;;
15665;SDS011;20725;51.196;3.510;2024-01-06T06:10:05;8.00;;;4.47;;
15665;SDS011;20725;51.196;3.510;2024-01-06T06:12:32;7.17;;;3.77;;
15665;SDS011;20725;51.196;3.510;2024-01-06T06:14:59;9.90;;;4.60;;
15665;SDS011;20725;51.196;3.510;2024-01-06T06:17:28;7.13;;;4.80;;
15665;SDS011;20725;51.196;3.510;2024-01-06T06:19:56;9.17;;;4.50;;
15665;SDS011;20725;51.196;3.510;2024-01-06T06:22:23;6.57;;;4.47;;
15665;SDS011;20725;51.196;3.510;2024-01-06T06:24:53;6.50;;;4.83;;
15665;SDS011;20725;51.196;3.510;2024-01-06T06:27:20;8.43;;;5.27;;
15665;SDS011;20725;51.196;3.510;2024-01-06T06:29:48;8.80;;;5.07;;
15665;SDS011;20725;51.196;3.510;2024-01-06T06:32:15;8.93;;;5.13;;
15665;SDS011;20725;51.196;3.510;2024-01-06T06:34:42;11.77;;;5.17;;
15665;SDS011;20725;51.196;3.510;2024-01-06T06:37:10;6.53;;;5.33;;
15665;SDS011;20725;51.196;3.510;2024-01-06T06:39:37;9.40;;;5.80;;
15665;SDS011;20725;51.196;3.510;2024-01-06T06:42:06;9.17;;;4.93;;
15665;SDS011;20725;51.196;3.510;2024-01-06T06:44:33;7.67;;;5.77;;
15665;SDS011;20725;51.196;3.510;2024-01-06T06:47:01;8.70;;;5.23;;
15665;SDS011;20725;51.196;3.510;2024-01-06T06:49:28;9.10;;;5.20;;
15665;SDS011;20725;51.196;3.510;2024-01-06T06:51:55;8.03;;;5.93;;
15665;SDS011;20725;51.196;3.510;2024-01-06T06:54:23;8.17;;;5.33;;
15665;SDS011;20725;51.196;3.510;2024-01-06T06:56:50;8.00;;;5.90;;
15665;SDS011;20725;51.196;3.510;2024-01-06T06:59:18;9.87;;;5.73;;
15665;SDS011;20725;51.196;3.510;2024-01-06T07:01:45;9.10;;;5.83;;
15665;SDS011;20725;51.196;3.510;2024-01-06T07:04:12;10.63;;;6.20;;
15665;SDS011;20725;51.196;3.510;2024-01-06T07:06:40;10.50;;;5.80;;
15665;SDS011;20725;51.196;3.510;2024-01-06T07:09:07;9.10;;;6.57;;
15665;SDS011;20725;51.196;3.510;2024-01-06T07:11:34;8.80;;;5.77;;
15665;SDS011;20725;51.196;3.510;2024-01-06T07:14:01;12.07;;;7.00;;
15665;SDS011;20725;51.196;3.510;2024-01-06T07:16:29;12.43;;;6.60;;
15665;SDS011;20725;51.196;3.510;2024-01-06T07:18:57;9.90;;;7.17;;
15665;SDS011;20725;51.196;3.510;2024-01-06T07:21:24;11.40;;;6.77;;
15665;SDS011;20725;51.196;3.510;2024-01-06T07:23:51;11.23;;;7.07;;
15665;SDS011;20725;51.196;3.510;2024-01-06T07:26:18;15.80;;;6.63;;
15665;SDS011;20725;51.196;3.510;2024-01-06T07:28:46;17.30;;;6.80;;
15665;SDS011;20725;51.196;3.510;2024-01-06T07:31:14;10.33;;;5.97;;
15665;SDS011;20725;51.196;3.510;2024-01-06T07:33:44;13.10;;;6.70;;
15665;SDS011;20725;51.196;3.510;2024-01-06T07:36:11;13.93;;;6.80;;
15665;SDS011;20725;51.196;3.510;2024-01-06T07:38:38;11.90;;;6.77;;
15665;SDS011;20725;51.196;3.510;2024-01-06T07:41:06;16.77;;;7.17;;
15665;SDS011;20725;51.196;3.510;2024-01-06T07:43:34;11.43;;;6.93;;
15665;SDS011;20725;51.196;3.510;2024-01-06T07:46:01;11.27;;;6.50;;
15665;SDS011;20725;51.196;3.510;2024-01-06T07:48:30;10.77;;;6.63;;
15665;SDS011;20725;51.196;3.510;2024-01-06T07:50:58;11.67;;;6.33;;
15665;SDS011;20725;51.196;3.510;2024-01-06T07:53:26;11.93;;;5.97;;
15665;SDS011;20725;51.196;3.510;2024-01-06T07:55:53;15.60;;;5.80;;
15665;SDS011;20725;51.196;3.510;2024-01-06T07:58:21;11.57;;;5.83;;
15665;SDS011;20725;51.196;3.510;2024-01-06T08:00:48;11.80;;;5.40;;
15665;SDS011;20725;51.196;3.510;2024-01-06T08:03:15;10.00;;;4.93;;
15665;SDS011;20725;51.196;3.510;2024-01-06T08:05:43;10.10;;;4.70;;
15665;SDS011;20725;51.196;3.510;2024-01-06T08:08:11;9.90;;;4.30;;
15665;SDS011;20725;51.196;3.510;2024-01-06T08:10:41;7.53;;;3.53;;
15665;SDS011;20725;51.196;3.510;2024-01-06T08:13:09;8.03;;;3.60;;
15665;SDS011;20725;51.196;3.510;2024-01-06T08:15:36;6.23;;;3.37;;
15665;SDS011;20725;51.196;3.510;2024-01-06T08:18:04;8.93;;;3.80;;
15665;SDS011;20725;51.196;3.510;2024-01-06T08:20:32;7.33;;;4.20;;
15665;SDS011;20725;51.196;3.510;2024-01-06T08:22:59;12.37;;;3.90;;
15665;SDS011;20725;51.196;3.510;2024-01-06T08:25:28;8.00;;;3.73;;
15665;SDS011;20725;51.196;3.510;2024-01-06T08:27:55;6.20;;;4.13;;
15665;SDS011;20725;51.196;3.510;2024-01-06T08:30:22;6.30;;;3.70;;
15665;SDS011;20725;51.196;3.510;2024-01-06T08:32:50;5.83;;;3.40;;
15665;SDS011;20725;51.196;3.510;2024-01-06T08:35:17;5.60;;;3.33;;
15665;SDS011;20725;51.196;3.510;2024-01-06T08:37:45;13.70;;;4.00;;
15665;SDS011;20725;51.196;3.510;2024-01-06T08:40:12;5.33;;;3.67;;
15665;SDS011;20725;51.196;3.510;2024-01-06T08:42:41;11.73;;;3.90;;
15665;SDS011;20725;51.196;3.510;2024-01-06T08:45:09;7.10;;;3.67;;
15665;SDS011;20725;51.196;3.510;2024-01-06T08:47:36;8.30;;;3.20;;
15665;SDS011;20725;51.196;3.510;2024-01-06T08:50:04;11.13;;;4.20;;
15665;SDS011;20725;51.196;3.510;2024-01-06T08:52:32;8.80;;;4.07;;
15665;SDS011;20725;51.196;3.510;2024-01-06T08:54:59;7.30;;;3.67;;
15665;SDS011;20725;51.196;3.510;2024-01-06T08:57:26;8.70;;;3.90;;
15665;SDS011;20725;51.196;3.510;2024-01-06T08:59:55;8.70;;;3.90;;
15665;SDS011;20725;51.196;3.510;2024-01-06T09:02:23;10.30;;;3.97;;
15665;SDS011;20725;51.196;3.510;2024-01-06T09:04:51;9.63;;;4.20;;
15665;SDS011;20725;51.196;3.510;2024-01-06T09:07:18;5.17;;;4.57;;
15665;SDS011;20725;51.196;3.510;2024-01-06T09:09:46;6.73;;;4.53;;
15665;SDS011;20725;51.196;3.510;2024-01-06T09:12:13;6.20;;;4.67;;
15665;SDS011;20725;51.196;3.510;2024-01-06T09:14:41;7.77;;;4.33;;
15665;SDS011;20725;51.196;3.510;2024-01-06T09:17:09;8.87;;;4.77;;
15665;SDS011;20725;51.196;3.510;2024-01-06T09:19:37;9.17;;;5.27;;
15665;SDS011;20725;51.196;3.510;2024-01-06T09:22:04;6.00;;;5.03;;
15665;SDS011;20725;51.196;3.510;2024-01-06T09:24:31;8.20;;;5.03;;
15665;SDS011;20725;51.196;3.510;2024-01-06T09:26:59;8.63;;;5.33;;
15665;SDS011;20725;51.196;3.510;2024-01-06T09:29:28;11.10;;;5.60;;
15665;SDS011;20725;51.196;3.510;2024-01-06T09:31:56;10.93;;;4.47;;
15665;SDS011;20725;51.196;3.510;2024-01-06T09:34:24;10.13;;;5.40;;
15665;SDS011;20725;51.196;3.510;2024-01-06T09:36:52;7.73;;;5.20;;
15665;SDS011;20725;51.196;3.510;2024-01-06T09:39:19;7.00;;;4.73;;
15665;SDS011;20725;51.196;3.510;2024-01-06T09:41:46;8.87;;;4.80;;
15665;SDS011;20725;51.196;3.510;2024-01-06T09:44:14;10.03;;;5.47;;
15665;SDS011;20725;51.196;3.510;2024-01-06T09:46:42;9.60;;;5.20;;
15665;SDS011;20725;51.196;3.510;2024-01-06T09:49:09;10.83;;;5.40;;
15665;SDS011;20725;51.196;3.510;2024-01-06T09:51:40;11.27;;;5.37;;
15665;SDS011;20725;51.196;3.510;2024-01-06T09:54:08;7.93;;;4.90;;
15665;SDS011;20725;51.196;3.510;2024-01-06T09:56:36;6.00;;;5.40;;
15665;SDS011;20725;51.196;3.510;2024-01-06T09:59:03;11.60;;;5.37;;
15665;SDS011;20725;51.196;3.510;2024-01-06T10:01:30;9.83;;;5.23;;
15665;SDS011;20725;51.196;3.510;2024-01-06T10:03:58;11.47;;;5.20;;
15665;SDS011;20725;51.196;3.510;2024-01-06T10:06:25;10.27;;;5.23;;
15665;SDS011;20725;51.196;3.510;2024-01-06T10:08:54;6.03;;;5.20;;
15665;SDS011;20725;51.196;3.510;2024-01-06T10:11:21;9.83;;;5.60;;
15665;SDS011;20725;51.196;3.510;2024-01-06T10:13:49;6.87;;;5.27;;
15665;SDS011;20725;51.196;3.510;2024-01-06T10:16:16;8.03;;;5.10;;
15665;SDS011;20725;51.196;3.510;2024-01-06T10:18:44;5.63;;;5.10;;
15665;SDS011;20725;51.196;3.510;2024-01-06T10:21:12;5.73;;;5.13;;
15665;SDS011;20725;51.196;3.510;2024-01-06T10:23:42;6.83;;;5.30;;
15665;SDS011;20725;51.196;3.510;2024-01-06T10:26:13;7.27;;;5.30;;
15665;SDS011;20725;51.196;3.510;2024-01-06T10:28:40;6.37;;;4.63;;
15665;SDS011;20725;51.196;3.510;2024-01-06T10:31:08;5.97;;;4.40;;
15665;SDS011;20725;51.196;3.510;2024-01-06T10:33:35;7.87;;;3.93;;
15665;SDS011;20725;51.196;3.510;2024-01-06T10:36:03;7.20;;;4.20;;
15665;SDS011;20725;51.196;3.510;2024-01-06T10:38:31;6.07;;;4.43;;
15665;SDS011;20725;51.196;3.510;2024-01-06T10:41:00;8.93;;;4.70;;
15665;SDS011;20725;51.196;3.510;2024-01-06T10:43:33;8.13;;;4.67;;
15665;SDS011;20725;51.196;3.510;2024-01-06T10:46:03;9.03;;;4.93;;
15665;SDS011;20725;51.196;3.510;2024-01-06T10:48:34;7.73;;;5.40;;
15665;SDS011;20725;51.196;3.510;2024-01-06T10:51:03;11.33;;;5.73;;
15665;SDS011;20725;51.196;3.510;2024-01-06T10:53:32;5.00;;;4.60;;
15665;SDS011;20725;51.196;3.510;2024-01-06T10:56:01;9.63;;;4.53;;
15665;SDS011;20725;51.196;3.510;2024-01-06T10:58:28;7.63;;;4.13;;
15665;SDS011;20725;51.196;3.510;2024-01-06T11:00:57;9.87;;;4.30;;
15665;SDS011;20725;51.196;3.510;2024-01-06T11:03:25;8.10;;;4.60;;
15665;SDS011;20725;51.196;3.510;2024-01-06T11:05:53;7.07;;;4.23;;
15665;SDS011;20725;51.196;3.510;2024-01-06T11:08:21;6.10;;;3.90;;
15665;SDS011;20725;51.196;3.510;2024-01-06T11:10:49;10.00;;;3.73;;
15665;SDS011;20725;51.196;3.510;2024-01-06T11:13:21;9.50;;;4.00;;
15665;SDS011;20725;51.196;3.510;2024-01-06T11:15:49;16.60;;;5.27;;
15665;SDS011;20725;51.196;3.510;2024-01-06T11:18:34;7.83;;;4.47;;
15665;SDS011;20725;51.196;3.510;2024-01-06T11:21:21;11.03;;;4.47;;
15665;SDS011;20725;51.196;3.510;2024-01-06T11:24:04;8.83;;;4.73;;
15665;SDS011;20725;51.196;3.510;2024-01-06T11:26:32;4.60;;;3.57;;
15665;SDS011;20725;51.196;3.510;2024-01-06T11:28:59;6.77;;;3.27;;
15665;SDS011;20725;51.196;3.510;2024-01-06T11:31:28;7.60;;;3.20;;
15665;SDS011;20725;51.196;3.510;2024-01-06T11:33:57;4.50;;;2.90;;
15665;SDS011;20725;51.196;3.510;2024-01-06T11:36:38;5.67;;;2.97;;
15665;SDS011;20725;51.196;3.510;2024-01-06T11:39:06;3.93;;;2.80;;
15665;SDS011;20725;51.196;3.510;2024-01-06T11:41:49;3.40;;;2.80;;
15665;SDS011;20725;51.196;3.510;2024-01-06T11:44:18;7.43;;;2.47;;
15665;SDS011;20725;51.196;3.510;2024-01-06T11:46:45;6.03;;;2.87;;
15665;SDS011;20725;51.196;3.510;2024-01-06T11:49:14;3.73;;;2.80;;
15665;SDS011;20725;51.196;3.510;2024-01-06T11:51:42;3.70;;;3.00;;
15665;SDS011;20725;51.196;3.510;2024-01-06T11:54:10;5.23;;;2.90;;
15665;SDS011;20725;51.196;3.510;2024-01-06T11:56:37;5.53;;;2.90;;
15665;SDS011;20725;51.196;3.510;2024-01-06T11:59:05;7.00;;;2.90;;
15665;SDS011;20725;51.196;3.510;2024-01-06T12:01:36;3.03;;;2.70;;
15665;SDS011;20725;51.196;3.510;2024-01-06T12:04:03;3.87;;;2.80;;
15665;SDS011;20725;51.196;3.510;2024-01-06T12:06:32;4.17;;;2.43;;
15665;SDS011;20725;51.196;3.510;2024-01-06T12:09:03;5.67;;;2.93;;
15665;SDS011;20725;51.196;3.510;2024-01-06T12:11:31;5.67;;;2.73;;
15665;SDS011;20725;51.196;3.510;2024-01-06T12:13:59;7.60;;;3.30;;
15665;SDS011;20725;51.196;3.510;2024-01-06T12:16:26;4.50;;;2.70;;
15665;SDS011;20725;51.196;3.510;2024-01-06T12:18:54;6.70;;;3.13;;
15665;SDS011;20725;51.196;3.510;2024-01-06T12:21:22;3.40;;;2.60;;
15665;SDS011;20725;51.196;3.510;2024-01-06T12:23:51;4.63;;;3.00;;
15665;SDS011;20725;51.196;3.510;2024-01-06T12:26:18;4.40;;;2.70;;
15665;SDS011;20725;51.196;3.510;2024-01-06T12:28:46;4.87;;;2.70;;
15665;SDS011;20725;51.196;3.510;2024-01-06T12:31:15;2.93;;;2.30;;
15665;SDS011;20725;51.196;3.510;2024-01-06T12:33:44;2.70;;;2.50;;
15665;SDS011;20725;51.196;3.510;2024-01-06T12:36:11;6.53;;;2.70;;
15665;SDS011;20725;51.196;3.510;2024-01-06T12:38:38;6.50;;;2.70;;
15665;SDS011;20725;51.196;3.510;2024-01-06T12:41:10;5.67;;;2.50;;
15665;SDS011;20725;51.196;3.510;2024-01-06T12:43:37;4.13;;;2.80;;
15665;SDS011;20725;51.196;3.510;2024-01-06T12:46:05;4.87;;;2.77;;
15665;SDS011;20725;51.196;3.510;2024-01-06T12:48:32;4.53;;;2.90;;
15665;SDS011;20725;51.196;3.510;2024-01-06T12:50:59;4.23;;;2.70;;
15665;SDS011;20725;51.196;3.510;2024-01-06T12:53:27;5.40;;;2.63;;
15665;SDS011;20725;51.196;3.510;2024-01-06T12:55:54;4.80;;;2.20;;
15665;SDS011;20725;51.196;3.510;2024-01-06T12:58:23;6.30;;;2.40;;
15665;SDS011;20725;51.196;3.510;2024-01-06T13:00:50;2.40;;;2.20;;
15665;SDS011;20725;51.196;3.510;2024-01-06T13:03:18;6.67;;;3.33;;
15665;SDS011;20725;51.196;3.510;2024-01-06T13:05:45;3.03;;;2.40;;
15665;SDS011;20725;51.196;3.510;2024-01-06T13:08:13;2.53;;;2.33;;
15665;SDS011;20725;51.196;3.510;2024-01-06T13:10:40;3.30;;;2.50;;
15665;SDS011;20725;51.196;3.510;2024-01-06T13:13:08;2.53;;;2.10;;
15665;SDS011;20725;51.196;3.510;2024-01-06T13:15:37;2.07;;;1.87;;
15665;SDS011;20725;51.196;3.510;2024-01-06T13:18:05;4.10;;;2.10;;
15665;SDS011;20725;51.196;3.510;2024-01-06T13:20:32;2.83;;;2.13;;
15665;SDS011;20725;51.196;3.510;2024-01-06T13:23:00;2.17;;;2.07;;
15665;SDS011;20725;51.196;3.510;2024-01-06T13:25:31;3.47;;;2.40;;
15665;SDS011;20725;51.196;3.510;2024-01-06T13:27:59;4.10;;;2.10;;
15665;SDS011;20725;51.196;3.510;2024-01-06T13:30:27;3.40;;;2.50;;
15665;SDS011;20725;51.196;3.510;2024-01-06T13:32:55;3.60;;;2.20;;
15665;SDS011;20725;51.196;3.510;2024-01-06T13:35:23;2.53;;;2.10;;
15665;SDS011;20725;51.196;3.510;2024-01-06T13:37:52;4.57;;;2.30;;
15665;SDS011;20725;51.196;3.510;2024-01-06T13:40:20;2.70;;;2.30;;
15665;SDS011;20725;51.196;3.510;2024-01-06T13:42:48;3.23;;;2.63;;
15665;SDS011;20725;51.196;3.510;2024-01-06T13:45:16;2.77;;;2.57;;
15665;SDS011;20725;51.196;3.510;2024-01-06T13:47:43;6.57;;;2.70;;
15665;SDS011;20725;51.196;3.510;2024-01-06T13:50:13;5.67;;;2.53;;
15665;SDS011;20725;51.196;3.510;2024-01-06T13:52:40;3.83;;;2.37;;
15665;SDS011;20725;51.196;3.510;2024-01-06T13:55:08;2.50;;;2.30;;
15665;SDS011;20725;51.196;3.510;2024-01-06T13:57:35;2.43;;;2.13;;
15665;SDS011;20725;51.196;3.510;2024-01-06T14:00:06;3.10;;;2.70;;
15665;SDS011;20725;51.196;3.510;2024-01-06T14:02:34;2.93;;;2.63;;
15665;SDS011;20725;51.196;3.510;2024-01-06T14:05:01;2.80;;;2.60;;
15665;SDS011;20725;51.196;3.510;2024-01-06T14:07:30;4.33;;;3.30;;
15665;SDS011;20725;51.196;3.510;2024-01-06T14:09:59;2.43;;;2.30;;
15665;SDS011;20725;51.196;3.510;2024-01-06T14:12:28;3.60;;;2.90;;
15665;SDS011;20725;51.196;3.510;2024-01-06T14:14:56;6.27;;;3.17;;
15665;SDS011;20725;51.196;3.510;2024-01-06T14:17:26;3.97;;;2.70;;
15665;SDS011;20725;51.196;3.510;2024-01-06T14:19:53;3.10;;;2.63;;
15665;SDS011;20725;51.196;3.510;2024-01-06T14:22:21;6.17;;;3.43;;
15665;SDS011;20725;51.196;3.510;2024-01-06T14:24:50;5.67;;;3.20;;
15665;SDS011;20725;51.196;3.510;2024-01-06T14:27:17;4.57;;;2.60;;
15665;SDS011;20725;51.196;3.510;2024-01-06T14:29:45;3.20;;;2.50;;
15665;SDS011;20725;51.196;3.510;2024-01-06T14:32:12;2.97;;;2.60;;
15665;SDS011;20725;51.196;3.510;2024-01-06T14:34:40;3.50;;;2.77;;
15665;SDS011;20725;51.196;3.510;2024-01-06T14:37:07;3.63;;;2.50;;
15665;SDS011;20725;51.196;3.510;2024-01-06T14:39:35;3.30;;;2.60;;
15665;SDS011;20725;51.196;3.510;2024-01-06T14:42:04;2.63;;;2.43;;
15665;SDS011;20725;51.196;3.510;2024-01-06T14:44:32;4.70;;;2.67;;
15665;SDS011;20725;51.196;3.510;2024-01-06T14:46:59;4.47;;;2.53;;
15665;SDS011;20725;51.196;3.510;2024-01-06T14:49:26;3.37;;;2.90;;